sensor_id;sensor_type;location;lat;lon;timestamp;temperature;humidity
37974;DHT22;23796;51.458;7.000;2023-06-26T00:00:59;25.10;60.30
37974;DHT22;23796;51.458;7.000;2023-06-26T00:03:24;25.10;60.40
37974;DHT22;23796;51.458;7.000;2023-06-26T00:05:50;25.10;60.60
37974;DHT22;23796;51.458;7.000;2023-06-26T00:08:18;25.00;60.60
37974;DHT22;23796;51.458;7.000;2023-06-26T00:10:44;25.00;60.80
37974;DHT22;23796;51.458;7.000;2023-06-26T00:13:09;24.90;61.00
37974;DHT22;23796;51.458;7.000;2023-06-26T00:15:40;24.90;61.10
37974;DHT22;23796;51.458;7.000;2023-06-26T00:18:05;24.90;61.30
37974;DHT22;23796;51.458;7.000;2023-06-26T00:20:31;24.90;61.40
37974;DHT22;23796;51.458;7.000;2023-06-26T00:22:59;24.90;61.50
37974;DHT22;23796;51.458;7.000;2023-06-26T00:25:27;24.80;61.60
37974;DHT22;23796;51.458;7.000;2023-06-26T00:27:53;24.80;61.90
37974;DHT22;23796;51.458;7.000;2023-06-26T00:30:21;24.80;62.00
37974;DHT22;23796;51.458;7.000;2023-06-26T00:32:46;24.70;62.10
37974;DHT22;23796;51.458;7.000;2023-06-26T00:35:14;24.70;62.30
37974;DHT22;23796;51.458;7.000;2023-06-26T00:37:40;24.70;62.40
37974;DHT22;23796;51.458;7.000;2023-06-26T00:40:08;24.70;62.40
37974;DHT22;23796;51.458;7.000;2023-06-26T00:42:34;24.60;62.40
37974;DHT22;23796;51.458;7.000;2023-06-26T00:45:00;24.60;62.60
37974;DHT22;23796;51.458;7.000;2023-06-26T00:47:29;24.60;62.50
37974;DHT22;23796;51.458;7.000;2023-06-26T00:49:55;24.60;62.70
37974;DHT22;23796;51.458;7.000;2023-06-26T00:52:21;24.50;62.70
37974;DHT22;23796;51.458;7.000;2023-06-26T00:54:49;24.50;62.80
37974;DHT22;23796;51.458;7.000;2023-06-26T00:57:19;24.50;62.80
37974;DHT22;23796;51.458;7.000;2023-06-26T00:59:44;24.40;62.80
37974;DHT22;23796;51.458;7.000;2023-06-26T01:02:12;24.40;62.90
37974;DHT22;23796;51.458;7.000;2023-06-26T01:04:51;24.40;63.00
37974;DHT22;23796;51.458;7.000;2023-06-26T01:07:18;24.30;63.00
37974;DHT22;23796;51.458;7.000;2023-06-26T01:09:46;24.30;63.10
37974;DHT22;23796;51.458;7.000;2023-06-26T01:12:13;24.30;63.00
37974;DHT22;23796;51.458;7.000;2023-06-26T01:14:39;24.30;63.00
37974;DHT22;23796;51.458;7.000;2023-06-26T01:17:04;24.30;63.00
37974;DHT22;23796;51.458;7.000;2023-06-26T01:19:33;24.30;63.00
37974;DHT22;23796;51.458;7.000;2023-06-26T01:22:27;24.20;63.00
37974;DHT22;23796;51.458;7.000;2023-06-26T01:25:27;24.20;63.00
37974;DHT22;23796;51.458;7.000;2023-06-26T01:27:55;24.20;63.10
37974;DHT22;23796;51.458;7.000;2023-06-26T01:30:22;24.20;63.10
37974;DHT22;23796;51.458;7.000;2023-06-26T01:32:48;24.20;63.10
37974;DHT22;23796;51.458;7.000;2023-06-26T01:35:15;24.10;63.10
37974;DHT22;23796;51.458;7.000;2023-06-26T01:37:43;24.10;63.00
37974;DHT22;23796;51.458;7.000;2023-06-26T01:40:09;24.10;63.00
37974;DHT22;23796;51.458;7.000;2023-06-26T01:42:35;24.10;62.80
37974;DHT22;23796;51.458;7.000;2023-06-26T01:45:15;24.10;62.70
37974;DHT22;23796;51.458;7.000;2023-06-26T01:47:46;24.10;62.60
37974;DHT22;23796;51.458;7.000;2023-06-26T01:50:18;24.10;62.70
37974;DHT22;23796;51.458;7.000;2023-06-26T01:53:02;24.00;62.60
37974;DHT22;23796;51.458;7.000;2023-06-26T01:56:08;24.00;62.50
37974;DHT22;23796;51.458;7.000;2023-06-26T01:58:27;24.00;62.40
37974;DHT22;23796;51.458;7.000;2023-06-26T02:00:53;24.00;62.30
37974;DHT22;23796;51.458;7.000;2023-06-26T02:03:25;24.00;62.30
37974;DHT22;23796;51.458;7.000;2023-06-26T02:05:51;23.90;62.20
37974;DHT22;23796;51.458;7.000;2023-06-26T02:08:19;23.90;62.20
37974;DHT22;23796;51.458;7.000;2023-06-26T02:10:44;23.90;62.20
37974;DHT22;23796;51.458;7.000;2023-06-26T02:13:12;23.90;62.20
37974;DHT22;23796;51.458;7.000;2023-06-26T02:15:39;23.90;62.20
37974;DHT22;23796;51.458;7.000;2023-06-26T02:18:04;23.90;62.00
37974;DHT22;23796;51.458;7.000;2023-06-26T02:20:30;23.90;61.90
37974;DHT22;23796;51.458;7.000;2023-06-26T02:22:56;23.80;62.00
37974;DHT22;23796;51.458;7.000;2023-06-26T02:25:21;23.80;62.00
37974;DHT22;23796;51.458;7.000;2023-06-26T02:27:47;23.80;61.90
37974;DHT22;23796;51.458;7.000;2023-06-26T02:30:13;23.80;62.00
37974;DHT22;23796;51.458;7.000;2023-06-26T02:32:41;23.80;62.00
37974;DHT22;23796;51.458;7.000;2023-06-26T02:35:07;23.80;62.00
37974;DHT22;23796;51.458;7.000;2023-06-26T02:37:32;23.70;62.10
37974;DHT22;23796;51.458;7.000;2023-06-26T02:39:58;23.70;62.10
37974;DHT22;23796;51.458;7.000;2023-06-26T02:42:23;23.70;62.10
37974;DHT22;23796;51.458;7.000;2023-06-26T02:44:49;23.70;62.10
37974;DHT22;23796;51.458;7.000;2023-06-26T02:47:15;23.70;62.20
37974;DHT22;23796;51.458;7.000;2023-06-26T02:49:42;23.60;62.20
37974;DHT22;23796;51.458;7.000;2023-06-26T02:52:08;23.60;62.40
37974;DHT22;23796;51.458;7.000;2023-06-26T02:54:36;23.60;62.50
37974;DHT22;23796;51.458;7.000;2023-06-26T02:57:04;23.50;62.80
37974;DHT22;23796;51.458;7.000;2023-06-26T02:59:34;23.50;62.80
37974;DHT22;23796;51.458;7.000;2023-06-26T03:02:02;23.50;62.90
37974;DHT22;23796;51.458;7.000;2023-06-26T03:04:29;23.40;63.00
37974;DHT22;23796;51.458;7.000;2023-06-26T03:07:02;23.40;63.10
37974;DHT22;23796;51.458;7.000;2023-06-26T03:09:30;23.40;63.30
37974;DHT22;23796;51.458;7.000;2023-06-26T03:11:57;23.40;63.40
37974;DHT22;23796;51.458;7.000;2023-06-26T03:14:23;23.40;63.70
37974;DHT22;23796;51.458;7.000;2023-06-26T03:16:49;23.30;64.10
37974;DHT22;23796;51.458;7.000;2023-06-26T03:19:18;23.30;64.30
37974;DHT22;23796;51.458;7.000;2023-06-26T03:21:46;23.30;64.60
37974;DHT22;23796;51.458;7.000;2023-06-26T03:24:11;23.30;65.00
37974;DHT22;23796;51.458;7.000;2023-06-26T03:26:37;23.20;65.40
37974;DHT22;23796;51.458;7.000;2023-06-26T03:29:05;23.20;65.70
37974;DHT22;23796;51.458;7.000;2023-06-26T03:31:30;23.10;66.00
37974;DHT22;23796;51.458;7.000;2023-06-26T03:33:58;23.10;66.50
37974;DHT22;23796;51.458;7.000;2023-06-26T03:36:24;23.00;67.00
37974;DHT22;23796;51.458;7.000;2023-06-26T03:38:54;23.00;67.70
37974;DHT22;23796;51.458;7.000;2023-06-26T03:41:22;23.00;68.20
37974;DHT22;23796;51.458;7.000;2023-06-26T03:43:51;22.90;68.70
37974;DHT22;23796;51.458;7.000;2023-06-26T03:46:16;22.90;68.90
37974;DHT22;23796;51.458;7.000;2023-06-26T03:48:44;22.80;69.30
37974;DHT22;23796;51.458;7.000;2023-06-26T03:51:10;22.80;69.70
37974;DHT22;23796;51.458;7.000;2023-06-26T03:53:36;22.80;69.90
37974;DHT22;23796;51.458;7.000;2023-06-26T03:56:01;22.70;70.20
37974;DHT22;23796;51.458;7.000;2023-06-26T03:58:29;22.70;70.50
37974;DHT22;23796;51.458;7.000;2023-06-26T04:00:55;22.70;70.80
37974;DHT22;23796;51.458;7.000;2023-06-26T04:03:23;22.60;71.00
37974;DHT22;23796;51.458;7.000;2023-06-26T04:05:51;22.60;71.20
37974;DHT22;23796;51.458;7.000;2023-06-26T04:08:19;22.60;71.60
37974;DHT22;23796;51.458;7.000;2023-06-26T04:10:46;22.60;71.80
37974;DHT22;23796;51.458;7.000;2023-06-26T04:13:13;22.60;72.00
37974;DHT22;23796;51.458;7.000;2023-06-26T04:15:39;22.50;72.20
37974;DHT22;23796;51.458;7.000;2023-06-26T04:18:05;22.50;72.20
37974;DHT22;23796;51.458;7.000;2023-06-26T04:20:30;22.40;72.30
37974;DHT22;23796;51.458;7.000;2023-06-26T04:22:56;22.40;72.30
37974;DHT22;23796;51.458;7.000;2023-06-26T04:25:22;22.30;72.50
37974;DHT22;23796;51.458;7.000;2023-06-26T04:27:47;22.30;72.60
37974;DHT22;23796;51.458;7.000;2023-06-26T04:30:15;22.20;72.60
37974;DHT22;23796;51.458;7.000;2023-06-26T04:32:41;22.10;72.80
37974;DHT22;23796;51.458;7.000;2023-06-26T04:35:07;22.10;72.80
37974;DHT22;23796;51.458;7.000;2023-06-26T04:37:32;22.10;72.70
37974;DHT22;23796;51.458;7.000;2023-06-26T04:40:02;22.10;72.50
37974;DHT22;23796;51.458;7.000;2023-06-26T04:42:29;22.10;72.60
37974;DHT22;23796;51.458;7.000;2023-06-26T04:44:55;22.10;73.00
37974;DHT22;23796;51.458;7.000;2023-06-26T04:47:23;22.00;73.10
37974;DHT22;23796;51.458;7.000;2023-06-26T04:49:48;21.90;73.40
37974;DHT22;23796;51.458;7.000;2023-06-26T04:52:16;22.00;73.30
37974;DHT22;23796;51.458;7.000;2023-06-26T04:54:42;21.90;73.60
37974;DHT22;23796;51.458;7.000;2023-06-26T04:57:10;21.90;73.80
37974;DHT22;23796;51.458;7.000;2023-06-26T04:59:39;21.80;74.00
37974;DHT22;23796;51.458;7.000;2023-06-26T05:02:07;21.80;74.30
37974;DHT22;23796;51.458;7.000;2023-06-26T05:04:33;21.90;74.20
37974;DHT22;23796;51.458;7.000;2023-06-26T05:06:59;21.90;74.10
37974;DHT22;23796;51.458;7.000;2023-06-26T05:09:24;21.90;74.20
37974;DHT22;23796;51.458;7.000;2023-06-26T05:11:51;21.90;74.70
37974;DHT22;23796;51.458;7.000;2023-06-26T05:14:16;22.00;74.50
37974;DHT22;23796;51.458;7.000;2023-06-26T05:16:42;22.10;74.50
37974;DHT22;23796;51.458;7.000;2023-06-26T05:19:08;22.10;74.40
37974;DHT22;23796;51.458;7.000;2023-06-26T05:21:34;22.10;74.70
37974;DHT22;23796;51.458;7.000;2023-06-26T05:24:02;22.10;75.10
37974;DHT22;23796;51.458;7.000;2023-06-26T05:26:28;22.20;75.10
37974;DHT22;23796;51.458;7.000;2023-06-26T05:28:54;22.20;74.90
37974;DHT22;23796;51.458;7.000;2023-06-26T05:31:23;22.40;74.90
37974;DHT22;23796;51.458;7.000;2023-06-26T05:33:49;22.60;74.80
37974;DHT22;23796;51.458;7.000;2023-06-26T05:36:16;22.60;75.10
37974;DHT22;23796;51.458;7.000;2023-06-26T05:38:42;22.50;74.80
37974;DHT22;23796;51.458;7.000;2023-06-26T05:41:13;22.50;74.40
37974;DHT22;23796;51.458;7.000;2023-06-26T05:43:41;22.40;74.70
37974;DHT22;23796;51.458;7.000;2023-06-26T05:46:07;22.40;74.50
37974;DHT22;23796;51.458;7.000;2023-06-26T05:48:32;22.10;74.80
37974;DHT22;23796;51.458;7.000;2023-06-26T05:50:58;22.00;75.60
37974;DHT22;23796;51.458;7.000;2023-06-26T05:53:24;21.90;75.80
37974;DHT22;23796;51.458;7.000;2023-06-26T05:55:50;22.00;75.60
37974;DHT22;23796;51.458;7.000;2023-06-26T05:58:16;22.00;75.30
37974;DHT22;23796;51.458;7.000;2023-06-26T06:00:43;22.20;75.30
37974;DHT22;23796;51.458;7.000;2023-06-26T06:03:09;22.50;74.40
37974;DHT22;23796;51.458;7.000;2023-06-26T06:05:35;22.50;74.20
37974;DHT22;23796;51.458;7.000;2023-06-26T06:08:03;22.60;73.90
37974;DHT22;23796;51.458;7.000;2023-06-26T06:10:31;22.30;74.60
37974;DHT22;23796;51.458;7.000;2023-06-26T06:12:57;22.40;74.70
37974;DHT22;23796;51.458;7.000;2023-06-26T06:15:23;22.50;74.10
37974;DHT22;23796;51.458;7.000;2023-06-26T06:17:48;22.30;74.60
37974;DHT22;23796;51.458;7.000;2023-06-26T06:20:14;22.20;75.10
37974;DHT22;23796;51.458;7.000;2023-06-26T06:22:42;22.20;74.90
37974;DHT22;23796;51.458;7.000;2023-06-26T06:25:08;22.10;75.20
37974;DHT22;23796;51.458;7.000;2023-06-26T06:27:33;22.20;75.20
37974;DHT22;23796;51.458;7.000;2023-06-26T06:30:01;22.10;75.10
37974;DHT22;23796;51.458;7.000;2023-06-26T06:32:30;21.90;75.90
37974;DHT22;23796;51.458;7.000;2023-06-26T06:34:58;21.80;76.30
37974;DHT22;23796;51.458;7.000;2023-06-26T06:37:23;21.70;76.60
37974;DHT22;23796;51.458;7.000;2023-06-26T06:39:52;21.60;77.10
37974;DHT22;23796;51.458;7.000;2023-06-26T06:42:17;21.60;77.40
37974;DHT22;23796;51.458;7.000;2023-06-26T06:44:43;21.50;77.80
37974;DHT22;23796;51.458;7.000;2023-06-26T06:47:11;21.30;78.60
37974;DHT22;23796;51.458;7.000;2023-06-26T06:49:36;21.40;78.80
37974;DHT22;23796;51.458;7.000;2023-06-26T06:52:02;21.40;78.70
37974;DHT22;23796;51.458;7.000;2023-06-26T06:54:27;21.40;79.00
37974;DHT22;23796;51.458;7.000;2023-06-26T06:56:56;21.50;78.90
37974;DHT22;23796;51.458;7.000;2023-06-26T06:59:24;21.50;78.60
37974;DHT22;23796;51.458;7.000;2023-06-26T07:01:50;21.40;79.00
37974;DHT22;23796;51.458;7.000;2023-06-26T07:04:18;21.50;78.90
37974;DHT22;23796;51.458;7.000;2023-06-26T07:06:43;21.70;78.50
37974;DHT22;23796;51.458;7.000;2023-06-26T07:09:11;21.90;78.50
37974;DHT22;23796;51.458;7.000;2023-06-26T07:11:37;22.00;77.50
37974;DHT22;23796;51.458;7.000;2023-06-26T07:14:02;22.30;76.90
37974;DHT22;23796;51.458;7.000;2023-06-26T07:16:28;22.60;76.30
37974;DHT22;23796;51.458;7.000;2023-06-26T07:18:54;22.90;75.30
37974;DHT22;23796;51.458;7.000;2023-06-26T07:21:20;22.80;75.70
37974;DHT22;23796;51.458;7.000;2023-06-26T07:23:47;22.70;76.10
37974;DHT22;23796;51.458;7.000;2023-06-26T07:26:15;22.40;76.60
37974;DHT22;23796;51.458;7.000;2023-06-26T07:28:41;22.20;77.40
37974;DHT22;23796;51.458;7.000;2023-06-26T07:31:07;22.50;76.90
37974;DHT22;23796;51.458;7.000;2023-06-26T07:33:32;22.60;76.40
37974;DHT22;23796;51.458;7.000;2023-06-26T07:35:58;22.40;76.80
37974;DHT22;23796;51.458;7.000;2023-06-26T07:38:23;22.30;77.20
37974;DHT22;23796;51.458;7.000;2023-06-26T07:40:49;22.30;77.20
37974;DHT22;23796;51.458;7.000;2023-06-26T07:43:17;22.20;77.30
37974;DHT22;23796;51.458;7.000;2023-06-26T07:45:45;22.20;77.60
37974;DHT22;23796;51.458;7.000;2023-06-26T07:48:11;21.90;77.90
37974;DHT22;23796;51.458;7.000;2023-06-26T07:50:36;21.90;78.50
37974;DHT22;23796;51.458;7.000;2023-06-26T07:53:02;22.20;78.10
37974;DHT22;23796;51.458;7.000;2023-06-26T07:55:31;22.30;77.40
37974;DHT22;23796;51.458;7.000;2023-06-26T07:57:59;22.40;77.50
37974;DHT22;23796;51.458;7.000;2023-06-26T08:00:29;22.30;77.30
37974;DHT22;23796;51.458;7.000;2023-06-26T08:02:55;22.40;77.00
37974;DHT22;23796;51.458;7.000;2023-06-26T08:05:22;22.20;77.80
37974;DHT22;23796;51.458;7.000;2023-06-26T08:07:48;22.30;77.90
37974;DHT22;23796;51.458;7.000;2023-06-26T08:10:16;22.20;77.90
37974;DHT22;23796;51.458;7.000;2023-06-26T08:12:44;22.20;77.90
37974;DHT22;23796;51.458;7.000;2023-06-26T08:15:11;22.20;78.10
37974;DHT22;23796;51.458;7.000;2023-06-26T08:17:37;22.50;77.80
37974;DHT22;23796;51.458;7.000;2023-06-26T08:20:04;22.70;77.50
37974;DHT22;23796;51.458;7.000;2023-06-26T08:22:30;22.60;77.00
37974;DHT22;23796;51.458;7.000;2023-06-26T08:25:01;22.80;76.80
37974;DHT22;23796;51.458;7.000;2023-06-26T08:27:27;23.40;75.40
37974;DHT22;23796;51.458;7.000;2023-06-26T08:29:55;23.60;73.90
37974;DHT22;23796;51.458;7.000;2023-06-26T08:32:21;23.30;75.00
37974;DHT22;23796;51.458;7.000;2023-06-26T08:34:49;23.30;74.80
37974;DHT22;23796;51.458;7.000;2023-06-26T08:37:18;23.30;75.20
37974;DHT22;23796;51.458;7.000;2023-06-26T08:39:46;23.30;74.90
37974;DHT22;23796;51.458;7.000;2023-06-26T08:42:11;23.30;74.70
37974;DHT22;23796;51.458;7.000;2023-06-26T08:44:37;23.60;74.00
37974;DHT22;23796;51.458;7.000;2023-06-26T08:47:05;23.90;72.50
37974;DHT22;23796;51.458;7.000;2023-06-26T08:52:28;23.60;73.00
37974;DHT22;23796;51.458;7.000;2023-06-26T08:54:58;23.50;73.80
37974;DHT22;23796;51.458;7.000;2023-06-26T08:57:28;23.50;73.30
37974;DHT22;23796;51.458;7.000;2023-06-26T08:59:56;23.70;72.80
37974;DHT22;23796;51.458;7.000;2023-06-26T09:02:22;23.60;72.80
37974;DHT22;23796;51.458;7.000;2023-06-26T09:04:52;23.50;72.40
37974;DHT22;23796;51.458;7.000;2023-06-26T09:07:17;23.60;71.80
37974;DHT22;23796;51.458;7.000;2023-06-26T09:09:43;23.40;71.80
37974;DHT22;23796;51.458;7.000;2023-06-26T09:12:12;22.80;73.30
37974;DHT22;23796;51.458;7.000;2023-06-26T09:14:40;22.70;74.50
37974;DHT22;23796;51.458;7.000;2023-06-26T09:17:06;23.10;72.70
37974;DHT22;23796;51.458;7.000;2023-06-26T09:19:37;23.30;72.30
37974;DHT22;23796;51.458;7.000;2023-06-26T09:22:04;23.40;72.40
37974;DHT22;23796;51.458;7.000;2023-06-26T09:24:32;23.50;72.20
37974;DHT22;23796;51.458;7.000;2023-06-26T09:26:58;23.40;72.30
37974;DHT22;23796;51.458;7.000;2023-06-26T09:29:28;23.70;71.20
37974;DHT22;23796;51.458;7.000;2023-06-26T09:31:56;23.80;71.40
37974;DHT22;23796;51.458;7.000;2023-06-26T09:34:22;23.70;71.30
37974;DHT22;23796;51.458;7.000;2023-06-26T09:36:47;23.60;71.70
37974;DHT22;23796;51.458;7.000;2023-06-26T09:39:14;23.70;70.20
37974;DHT22;23796;51.458;7.000;2023-06-26T09:41:45;23.90;69.50
37974;DHT22;23796;51.458;7.000;2023-06-26T09:44:16;23.60;70.40
37974;DHT22;23796;51.458;7.000;2023-06-26T09:46:45;23.80;70.60
37974;DHT22;23796;51.458;7.000;2023-06-26T09:49:11;24.30;69.10
37974;DHT22;23796;51.458;7.000;2023-06-26T09:51:38;24.30;68.40
37974;DHT22;23796;51.458;7.000;2023-06-26T09:54:05;24.40;67.40
37974;DHT22;23796;51.458;7.000;2023-06-26T09:56:33;24.30;68.00
37974;DHT22;23796;51.458;7.000;2023-06-26T09:59:02;24.10;67.00
37974;DHT22;23796;51.458;7.000;2023-06-26T10:01:31;23.70;67.20
37974;DHT22;23796;51.458;7.000;2023-06-26T10:03:57;23.50;67.30
37974;DHT22;23796;51.458;7.000;2023-06-26T10:06:37;23.10;68.50
37974;DHT22;23796;51.458;7.000;2023-06-26T10:09:06;23.40;68.50
37974;DHT22;23796;51.458;7.000;2023-06-26T10:11:51;23.90;66.00
37974;DHT22;23796;51.458;7.000;2023-06-26T10:14:23;24.40;64.40
37974;DHT22;23796;51.458;7.000;2023-06-26T10:16:53;24.50;64.00
37974;DHT22;23796;51.458;7.000;2023-06-26T10:19:21;24.30;65.80
37974;DHT22;23796;51.458;7.000;2023-06-26T10:21:55;24.40;64.30
37974;DHT22;23796;51.458;7.000;2023-06-26T10:24:22;24.20;65.60
37974;DHT22;23796;51.458;7.000;2023-06-26T10:26:54;24.20;62.30
37974;DHT22;23796;51.458;7.000;2023-06-26T10:29:23;24.10;62.70
37974;DHT22;23796;51.458;7.000;2023-06-26T10:31:54;24.00;62.60
37974;DHT22;23796;51.458;7.000;2023-06-26T10:34:21;23.80;63.90
37974;DHT22;23796;51.458;7.000;2023-06-26T10:36:47;23.70;64.60
37974;DHT22;23796;51.458;7.000;2023-06-26T10:39:13;23.70;65.00
37974;DHT22;23796;51.458;7.000;2023-06-26T10:41:42;23.70;65.10
37974;DHT22;23796;51.458;7.000;2023-06-26T10:44:11;23.90;65.60
37974;DHT22;23796;51.458;7.000;2023-06-26T10:49:27;24.10;64.70
37974;DHT22;23796;51.458;7.000;2023-06-26T10:51:56;24.20;63.10
37974;DHT22;23796;51.458;7.000;2023-06-26T10:54:28;24.40;62.40
37974;DHT22;23796;51.458;7.000;2023-06-26T10:56:55;24.60;63.90
37974;DHT22;23796;51.458;7.000;2023-06-26T10:59:26;24.70;63.50
37974;DHT22;23796;51.458;7.000;2023-06-26T11:02:01;24.80;63.50
37974;DHT22;23796;51.458;7.000;2023-06-26T11:04:46;24.10;64.10
37974;DHT22;23796;51.458;7.000;2023-06-26T11:09:54;24.20;65.00
37974;DHT22;23796;51.458;7.000;2023-06-26T11:12:42;23.90;65.30
37974;DHT22;23796;51.458;7.000;2023-06-26T11:15:12;23.60;65.60
37974;DHT22;23796;51.458;7.000;2023-06-26T11:17:41;23.70;65.00
37974;DHT22;23796;51.458;7.000;2023-06-26T11:20:11;24.00;64.00
37974;DHT22;23796;51.458;7.000;2023-06-26T11:22:39;24.40;62.60
37974;DHT22;23796;51.458;7.000;2023-06-26T11:25:07;24.70;60.80
37974;DHT22;23796;51.458;7.000;2023-06-26T11:30:01;24.70;59.60
37974;DHT22;23796;51.458;7.000;2023-06-26T11:32:27;24.50;59.30
37974;DHT22;23796;51.458;7.000;2023-06-26T11:34:56;24.50;59.30
37974;DHT22;23796;51.458;7.000;2023-06-26T11:37:22;24.30;59.40
37974;DHT22;23796;51.458;7.000;2023-06-26T11:39:48;24.20;59.50
37974;DHT22;23796;51.458;7.000;2023-06-26T11:42:19;24.20;59.50
37974;DHT22;23796;51.458;7.000;2023-06-26T11:44:45;23.90;60.50
37974;DHT22;23796;51.458;7.000;2023-06-26T11:47:17;24.10;60.80
37974;DHT22;23796;51.458;7.000;2023-06-26T11:49:48;24.20;60.00
37974;DHT22;23796;51.458;7.000;2023-06-26T11:52:15;24.20;59.60
37974;DHT22;23796;51.458;7.000;2023-06-26T11:54:42;23.90;60.00
37974;DHT22;23796;51.458;7.000;2023-06-26T11:57:13;23.80;59.10
37974;DHT22;23796;51.458;7.000;2023-06-26T11:59:41;23.70;56.80
37974;DHT22;23796;51.458;7.000;2023-06-26T12:02:10;23.80;56.80
37974;DHT22;23796;51.458;7.000;2023-06-26T12:04:40;23.80;57.90
37974;DHT22;23796;51.458;7.000;2023-06-26T12:07:11;24.10;57.70
37974;DHT22;23796;51.458;7.000;2023-06-26T12:09:43;24.70;56.00
37974;DHT22;23796;51.458;7.000;2023-06-26T12:12:16;24.80;51.60
37974;DHT22;23796;51.458;7.000;2023-06-26T12:14:42;24.60;51.80
37974;DHT22;23796;51.458;7.000;2023-06-26T12:17:11;24.60;53.90
37974;DHT22;23796;51.458;7.000;2023-06-26T12:19:43;24.50;53.80
37974;DHT22;23796;51.458;7.000;2023-06-26T12:22:09;24.10;55.40
37974;DHT22;23796;51.458;7.000;2023-06-26T12:24:41;24.00;55.60
37974;DHT22;23796;51.458;7.000;2023-06-26T12:27:10;24.10;56.00
37974;DHT22;23796;51.458;7.000;2023-06-26T12:29:38;24.40;56.30
37974;DHT22;23796;51.458;7.000;2023-06-26T12:32:07;24.60;53.30
37974;DHT22;23796;51.458;7.000;2023-06-26T12:34:34;24.80;51.00
37974;DHT22;23796;51.458;7.000;2023-06-26T12:37:02;24.70;51.00
37974;DHT22;23796;51.458;7.000;2023-06-26T12:39:29;24.30;51.60
37974;DHT22;23796;51.458;7.000;2023-06-26T12:42:00;24.50;51.70
37974;DHT22;23796;51.458;7.000;2023-06-26T12:44:30;24.40;52.50
37974;DHT22;23796;51.458;7.000;2023-06-26T12:47:02;24.40;51.80
37974;DHT22;23796;51.458;7.000;2023-06-26T12:49:41;24.30;51.10
37974;DHT22;23796;51.458;7.000;2023-06-26T12:52:09;24.10;51.60
37974;DHT22;23796;51.458;7.000;2023-06-26T12:54:39;24.20;52.10
37974;DHT22;23796;51.458;7.000;2023-06-26T12:57:07;24.30;51.50
37974;DHT22;23796;51.458;7.000;2023-06-26T12:59:34;24.50;51.00
37974;DHT22;23796;51.458;7.000;2023-06-26T13:02:00;24.80;51.60
37974;DHT22;23796;51.458;7.000;2023-06-26T13:04:26;24.90;51.90
37974;DHT22;23796;51.458;7.000;2023-06-26T13:06:52;25.00;51.10
37974;DHT22;23796;51.458;7.000;2023-06-26T13:09:23;24.90;51.00
37974;DHT22;23796;51.458;7.000;2023-06-26T13:11:53;25.00;51.10
37974;DHT22;23796;51.458;7.000;2023-06-26T13:14:19;24.90;50.30
37974;DHT22;23796;51.458;7.000;2023-06-26T13:16:47;24.80;50.60
37974;DHT22;23796;51.458;7.000;2023-06-26T13:19:15;24.80;50.80
37974;DHT22;23796;51.458;7.000;2023-06-26T13:21:41;24.60;50.70
37974;DHT22;23796;51.458;7.000;2023-06-26T13:24:07;24.40;51.00
37974;DHT22;23796;51.458;7.000;2023-06-26T13:26:33;24.40;51.10
37974;DHT22;23796;51.458;7.000;2023-06-26T13:28:59;24.30;51.00
37974;DHT22;23796;51.458;7.000;2023-06-26T13:31:25;24.30;51.00
37974;DHT22;23796;51.458;7.000;2023-06-26T13:33:50;23.90;51.40
37974;DHT22;23796;51.458;7.000;2023-06-26T13:36:18;24.10;51.30
37974;DHT22;23796;51.458;7.000;2023-06-26T13:38:46;24.30;51.10
37974;DHT22;23796;51.458;7.000;2023-06-26T13:41:16;24.20;51.50
37974;DHT22;23796;51.458;7.000;2023-06-26T13:43:41;24.30;51.60
37974;DHT22;23796;51.458;7.000;2023-06-26T13:46:09;24.20;52.10
37974;DHT22;23796;51.458;7.000;2023-06-26T13:48:34;24.10;52.00
37974;DHT22;23796;51.458;7.000;2023-06-26T13:51:05;23.80;51.90
37974;DHT22;23796;51.458;7.000;2023-06-26T13:53:30;23.80;51.70
37974;DHT22;23796;51.458;7.000;2023-06-26T13:55:56;24.10;50.60
37974;DHT22;23796;51.458;7.000;2023-06-26T13:58:22;23.90;50.60
37974;DHT22;23796;51.458;7.000;2023-06-26T14:00:48;24.00;50.20
37974;DHT22;23796;51.458;7.000;2023-06-26T14:03:14;24.00;50.40
37974;DHT22;23796;51.458;7.000;2023-06-26T14:05:39;24.40;49.40
37974;DHT22;23796;51.458;7.000;2023-06-26T14:08:07;24.50;49.40
37974;DHT22;23796;51.458;7.000;2023-06-26T14:10:33;24.70;48.30
37974;DHT22;23796;51.458;7.000;2023-06-26T14:13:00;24.30;48.80
37974;DHT22;23796;51.458;7.000;2023-06-26T14:15:26;24.70;45.90
37974;DHT22;23796;51.458;7.000;2023-06-26T14:17:51;24.40;46.30
37974;DHT22;23796;51.458;7.000;2023-06-26T14:20:18;24.40;47.20
37974;DHT22;23796;51.458;7.000;2023-06-26T14:22:46;24.60;46.60
37974;DHT22;23796;51.458;7.000;2023-06-26T14:25:12;24.30;46.30
37974;DHT22;23796;51.458;7.000;2023-06-26T14:27:43;24.30;46.60
37974;DHT22;23796;51.458;7.000;2023-06-26T14:30:09;24.50;47.50
37974;DHT22;23796;51.458;7.000;2023-06-26T14:32:37;25.10;47.10
37974;DHT22;23796;51.458;7.000;2023-06-26T14:35:05;25.20;47.50
37974;DHT22;23796;51.458;7.000;2023-06-26T14:37:31;24.70;48.10
37974;DHT22;23796;51.458;7.000;2023-06-26T14:39:59;24.60;48.70
37974;DHT22;23796;51.458;7.000;2023-06-26T14:42:28;24.70;49.60
37974;DHT22;23796;51.458;7.000;2023-06-26T14:44:55;24.50;50.20
37974;DHT22;23796;51.458;7.000;2023-06-26T14:47:24;23.80;51.50
37974;DHT22;23796;51.458;7.000;2023-06-26T14:49:49;24.00;50.80
37974;DHT22;23796;51.458;7.000;2023-06-26T14:52:15;24.00;49.00
37974;DHT22;23796;51.458;7.000;2023-06-26T14:54:42;24.00;47.50
37974;DHT22;23796;51.458;7.000;2023-06-26T14:57:11;23.90;47.50
37974;DHT22;23796;51.458;7.000;2023-06-26T14:59:36;24.20;47.10
37974;DHT22;23796;51.458;7.000;2023-06-26T15:02:04;24.10;47.00
37974;DHT22;23796;51.458;7.000;2023-06-26T15:04:32;24.20;47.90
37974;DHT22;23796;51.458;7.000;2023-06-26T15:07:00;24.10;47.50
37974;DHT22;23796;51.458;7.000;2023-06-26T15:09:25;24.20;47.40
37974;DHT22;23796;51.458;7.000;2023-06-26T15:11:51;24.40;46.90
37974;DHT22;23796;51.458;7.000;2023-06-26T15:14:17;24.10;47.50
37974;DHT22;23796;51.458;7.000;2023-06-26T15:16:42;24.20;47.50
37974;DHT22;23796;51.458;7.000;2023-06-26T15:19:08;24.30;48.50
37974;DHT22;23796;51.458;7.000;2023-06-26T15:21:38;24.00;50.80
37974;DHT22;23796;51.458;7.000;2023-06-26T15:24:04;23.90;52.90
37974;DHT22;23796;51.458;7.000;2023-06-26T15:26:32;23.80;53.60
37974;DHT22;23796;51.458;7.000;2023-06-26T15:28:58;23.60;54.50
37974;DHT22;23796;51.458;7.000;2023-06-26T15:31:23;23.60;53.50
37974;DHT22;23796;51.458;7.000;2023-06-26T15:33:49;23.20;54.80
37974;DHT22;23796;51.458;7.000;2023-06-26T15:36:14;23.50;54.50
37974;DHT22;23796;51.458;7.000;2023-06-26T15:38:40;23.60;52.00
37974;DHT22;23796;51.458;7.000;2023-06-26T15:41:06;23.60;52.30
37974;DHT22;23796;51.458;7.000;2023-06-26T15:43:33;23.60;53.10